sensor_id;sensor_type;location;lat;lon;timestamp;pressure;altitude;pressure_sealevel;temperature;humidity
5755;BME280;2902;42.130;24.732;2023-04-27T00:00:35;98978.38;;;13.01;63.30
5755;BME280;2902;42.130;24.732;2023-04-27T00:03:02;98982.75;;;13.13;63.22
5755;BME280;2902;42.130;24.732;2023-04-27T00:05:33;98978.91;;;13.09;63.58
5755;BME280;2902;42.130;24.732;2023-04-27T00:08:01;98983.34;;;12.97;63.35
5755;BME280;2902;42.130;24.732;2023-04-27T00:10:28;98990.44;;;13.03;63.43
5755;BME280;2902;42.130;24.732;2023-04-27T00:12:54;98993.09;;;13.03;63.58
5755;BME280;2902;42.130;24.732;2023-04-27T00:15:21;99002.16;;;13.02;63.44
5755;BME280;2902;42.130;24.732;2023-04-27T00:17:48;99000.66;;;12.88;63.57
5755;BME280;2902;42.130;24.732;2023-04-27T00:20:15;98998.50;;;12.97;63.68
5755;BME280;2902;42.130;24.732;2023-04-27T00:22:41;99004.72;;;12.91;63.36
5755;BME280;2902;42.130;24.732;2023-04-27T00:25:10;99003.94;;;13.08;63.09
5755;BME280;2902;42.130;24.732;2023-04-27T00:27:36;99003.63;;;13.16;63.17
5755;BME280;2902;42.130;24.732;2023-04-27T00:30:04;99004.81;;;13.02;63.70
5755;BME280;2902;42.130;24.732;2023-04-27T00:32:31;99018.28;;;12.89;63.70
5755;BME280;2902;42.130;24.732;2023-04-27T00:34:57;99008.66;;;13.06;63.99
5755;BME280;2902;42.130;24.732;2023-04-27T00:37:24;99017.78;;;12.99;63.74
5755;BME280;2902;42.130;24.732;2023-04-27T00:39:51;99018.16;;;13.02;64.01
5755;BME280;2902;42.130;24.732;2023-04-27T00:42:19;99028.81;;;13.02;63.18
5755;BME280;2902;42.130;24.732;2023-04-27T00:44:46;99023.31;;;13.15;63.85
5755;BME280;2902;42.130;24.732;2023-04-27T00:47:13;99034.56;;;12.99;63.89
5755;BME280;2902;42.130;24.732;2023-04-27T00:49:41;99035.25;;;13.13;64.77
5755;BME280;2902;42.130;24.732;2023-04-27T00:52:08;99028.81;;;13.02;64.79
5755;BME280;2902;42.130;24.732;2023-04-27T00:54:35;99035.13;;;12.83;64.32
5755;BME280;2902;42.130;24.732;2023-04-27T00:57:02;99032.31;;;12.78;65.31
5755;BME280;2902;42.130;24.732;2023-04-27T00:59:30;99029.38;;;12.86;65.86
5755;BME280;2902;42.130;24.732;2023-04-27T01:01:58;99031.59;;;12.89;65.42
5755;BME280;2902;42.130;24.732;2023-04-27T01:04:25;99032.25;;;12.85;66.46
5755;BME280;2902;42.130;24.732;2023-04-27T01:06:53;99028.41;;;12.63;67.01
5755;BME280;2902;42.130;24.732;2023-04-27T01:09:19;99028.47;;;12.74;66.24
5755;BME280;2902;42.130;24.732;2023-04-27T01:11:46;99022.09;;;12.57;66.07
5755;BME280;2902;42.130;24.732;2023-04-27T01:14:13;99035.94;;;12.66;66.52
5755;BME280;2902;42.130;24.732;2023-04-27T01:16:42;99038.53;;;12.72;66.50
5755;BME280;2902;42.130;24.732;2023-04-27T01:19:11;99052.72;;;12.66;66.07
5755;BME280;2902;42.130;24.732;2023-04-27T01:21:37;99057.75;;;12.56;64.63
5755;BME280;2902;42.130;24.732;2023-04-27T01:24:07;99058.69;;;12.68;64.96
5755;BME280;2902;42.130;24.732;2023-04-27T01:26:34;99061.34;;;12.68;62.85
5755;BME280;2902;42.130;24.732;2023-04-27T01:29:00;99061.63;;;12.78;63.52
5755;BME280;2902;42.130;24.732;2023-04-27T01:31:27;99070.81;;;12.82;61.51
5755;BME280;2902;42.130;24.732;2023-04-27T01:33:54;99072.41;;;12.90;61.22
5755;BME280;2902;42.130;24.732;2023-04-27T01:36:21;99081.88;;;12.86;60.53
5755;BME280;2902;42.130;24.732;2023-04-27T01:38:47;99069.50;;;12.91;63.73
5755;BME280;2902;42.130;24.732;2023-04-27T01:41:15;99079.44;;;12.84;62.14
5755;BME280;2902;42.130;24.732;2023-04-27T01:43:42;99092.38;;;13.05;59.97
5755;BME280;2902;42.130;24.732;2023-04-27T01:46:10;99091.22;;;12.95;59.02
5755;BME280;2902;42.130;24.732;2023-04-27T01:48:37;99082.25;;;12.89;59.24
5755;BME280;2902;42.130;24.732;2023-04-27T01:51:04;99091.41;;;12.75;59.52
5755;BME280;2902;42.130;24.732;2023-04-27T01:53:31;99095.56;;;12.71;59.58
5755;BME280;2902;42.130;24.732;2023-04-27T01:55:59;99094.72;;;12.71;59.75
5755;BME280;2902;42.130;24.732;2023-04-27T01:58:27;99101.47;;;12.73;59.60
5755;BME280;2902;42.130;24.732;2023-04-27T02:00:54;99100.59;;;12.79;59.79
5755;BME280;2902;42.130;24.732;2023-04-27T02:03:20;99104.13;;;12.73;59.14
5755;BME280;2902;42.130;24.732;2023-04-27T02:05:47;99109.03;;;12.76;58.94
5755;BME280;2902;42.130;24.732;2023-04-27T02:08:14;99114.41;;;12.70;58.90
5755;BME280;2902;42.130;24.732;2023-04-27T02:10:40;99111.69;;;12.76;59.74
5755;BME280;2902;42.130;24.732;2023-04-27T02:13:07;99104.41;;;12.65;59.77
5755;BME280;2902;42.130;24.732;2023-04-27T02:15:36;99110.16;;;12.62;59.69
5755;BME280;2902;42.130;24.732;2023-04-27T02:18:03;99112.88;;;12.80;59.27
5755;BME280;2902;42.130;24.732;2023-04-27T02:20:30;99115.56;;;12.80;59.15
5755;BME280;2902;42.130;24.732;2023-04-27T02:22:57;99116.28;;;12.87;59.29
5755;BME280;2902;42.130;24.732;2023-04-27T02:25:24;99120.59;;;12.88;58.49
5755;BME280;2902;42.130;24.732;2023-04-27T02:27:51;99116.69;;;12.66;58.53
5755;BME280;2902;42.130;24.732;2023-04-27T02:30:18;99125.16;;;12.81;58.62
5755;BME280;2902;42.130;24.732;2023-04-27T02:32:46;99127.41;;;12.84;57.82
5755;BME280;2902;42.130;24.732;2023-04-27T02:35:14;99126.94;;;12.87;58.13
5755;BME280;2902;42.130;24.732;2023-04-27T02:37:41;99123.47;;;12.62;58.72
5755;BME280;2902;42.130;24.732;2023-04-27T02:40:08;99125.44;;;12.73;58.72
5755;BME280;2902;42.130;24.732;2023-04-27T02:42:35;99120.88;;;12.80;58.58
5755;BME280;2902;42.130;24.732;2023-04-27T02:45:04;99134.06;;;12.75;58.29
5755;BME280;2902;42.130;24.732;2023-04-27T02:47:31;99132.25;;;12.69;57.96
5755;BME280;2902;42.130;24.732;2023-04-27T02:49:59;99134.91;;;12.69;58.11
5755;BME280;2902;42.130;24.732;2023-04-27T02:52:26;99139.19;;;12.70;58.07
5755;BME280;2902;42.130;24.732;2023-04-27T02:54:52;99138.88;;;12.60;58.16
5755;BME280;2902;42.130;24.732;2023-04-27T02:57:19;99142.53;;;12.66;58.65
5755;BME280;2902;42.130;24.732;2023-04-27T02:59:46;99138.88;;;12.60;58.00
5755;BME280;2902;42.130;24.732;2023-04-27T03:02:12;99144.00;;;12.62;58.03
5755;BME280;2902;42.130;24.732;2023-04-27T03:04:39;99145.00;;;12.67;57.74
5755;BME280;2902;42.130;24.732;2023-04-27T03:07:09;99152.09;;;12.73;56.94
5755;BME280;2902;42.130;24.732;2023-04-27T03:09:36;99145.91;;;12.79;56.64
5755;BME280;2902;42.130;24.732;2023-04-27T03:12:03;99151.63;;;12.83;56.60
5755;BME280;2902;42.130;24.732;2023-04-27T03:14:30;99158.13;;;12.87;56.78
5755;BME280;2902;42.130;24.732;2023-04-27T03:16:57;99146.66;;;12.86;55.91
5755;BME280;2902;42.130;24.732;2023-04-27T03:19:23;99156.72;;;12.84;55.95
5755;BME280;2902;42.130;24.732;2023-04-27T03:21:50;99166.78;;;12.82;55.57
5755;BME280;2902;42.130;24.732;2023-04-27T03:24:18;99160.72;;;12.75;56.01
5755;BME280;2902;42.130;24.732;2023-04-27T03:26:46;99165.97;;;12.82;56.04
5755;BME280;2902;42.130;24.732;2023-04-27T03:29:12;99167.53;;;12.89;55.97
5755;BME280;2902;42.130;24.732;2023-04-27T03:31:39;99168.41;;;12.83;55.65
5755;BME280;2902;42.130;24.732;2023-04-27T03:34:06;99165.97;;;12.82;55.66
5755;BME280;2902;42.130;24.732;2023-04-27T03:36:32;99162.28;;;12.83;57.86
5755;BME280;2902;42.130;24.732;2023-04-27T03:38:59;99173.53;;;13.09;54.94
5755;BME280;2902;42.130;24.732;2023-04-27T03:41:27;99174.41;;;13.03;55.34
5755;BME280;2902;42.130;24.732;2023-04-27T03:43:54;99174.69;;;13.38;54.63
5755;BME280;2902;42.130;24.732;2023-04-27T03:46:20;99180.50;;;13.10;54.14
5755;BME280;2902;42.130;24.732;2023-04-27T03:48:47;99179.03;;;13.14;56.34
5755;BME280;2902;42.130;24.732;2023-04-27T03:51:14;99187.84;;;13.15;53.96
5755;BME280;2902;42.130;24.732;2023-04-27T03:53:40;99193.69;;;13.05;53.88
5755;BME280;2902;42.130;24.732;2023-04-27T03:56:07;99189.69;;;12.90;54.71
5755;BME280;2902;42.130;24.732;2023-04-27T03:58:35;99190.91;;;12.87;54.33
5755;BME280;2902;42.130;24.732;2023-04-27T04:01:02;99193.00;;;12.85;54.52
5755;BME280;2902;42.130;24.732;2023-04-27T04:03:29;99192.50;;;13.01;55.49
5755;BME280;2902;42.130;24.732;2023-04-27T04:05:56;99207.94;;;13.17;53.98
5755;BME280;2902;42.130;24.732;2023-04-27T04:08:22;99206.81;;;13.07;53.78
5755;BME280;2902;42.130;24.732;2023-04-27T04:10:50;99208.38;;;13.14;53.98
5755;BME280;2902;42.130;24.732;2023-04-27T04:13:16;99209.13;;;13.21;53.89
5755;BME280;2902;42.130;24.732;2023-04-27T04:15:44;99214.13;;;13.11;53.68
5755;BME280;2902;42.130;24.732;2023-04-27T04:18:11;99213.38;;;13.04;54.13
5755;BME280;2902;42.130;24.732;2023-04-27T04:20:38;99215.19;;;13.28;55.35
5755;BME280;2902;42.130;24.732;2023-04-27T04:23:05;99224.56;;;13.73;53.07
5755;BME280;2902;42.130;24.732;2023-04-27T04:25:31;99228.44;;;13.95;51.60
5755;BME280;2902;42.130;24.732;2023-04-27T04:27:58;99235.81;;;14.29;50.85
5755;BME280;2902;42.130;24.732;2023-04-27T04:30:25;99244.59;;;14.66;48.88
5755;BME280;2902;42.130;24.732;2023-04-27T04:32:53;99246.94;;;14.44;48.73
5755;BME280;2902;42.130;24.732;2023-04-27T04:35:20;99239.31;;;14.12;52.72
5755;BME280;2902;42.130;24.732;2023-04-27T04:37:47;99242.22;;;14.28;49.35
5755;BME280;2902;42.130;24.732;2023-04-27T04:40:14;99236.13;;;14.39;48.75
5755;BME280;2902;42.130;24.732;2023-04-27T04:42:40;99244.06;;;14.57;49.02
5755;BME280;2902;42.130;24.732;2023-04-27T04:45:08;99251.91;;;14.82;47.48
5755;BME280;2902;42.130;24.732;2023-04-27T04:47:35;99245.88;;;14.75;49.88
5755;BME280;2902;42.130;24.732;2023-04-27T04:50:03;99246.31;;;14.60;48.47
5755;BME280;2902;42.130;24.732;2023-04-27T04:52:31;99253.94;;;14.57;48.78
5755;BME280;2902;42.130;24.732;2023-04-27T04:54:57;99246.78;;;14.69;48.91
5755;BME280;2902;42.130;24.732;2023-04-27T04:57:24;99256.28;;;14.94;49.97
5755;BME280;2902;42.130;24.732;2023-04-27T04:59:51;99254.66;;;14.93;52.40
5755;BME280;2902;42.130;24.732;2023-04-27T05:02:17;99271.88;;;14.97;48.38
5755;BME280;2902;42.130;24.732;2023-04-27T05:04:44;99267.59;;;14.67;48.02
5755;BME280;2902;42.130;24.732;2023-04-27T05:07:12;99260.66;;;14.77;49.38
5755;BME280;2902;42.130;24.732;2023-04-27T05:09:39;99277.34;;;14.61;48.01
5755;BME280;2902;42.130;24.732;2023-04-27T05:12:06;99277.88;;;14.52;48.48
5755;BME280;2902;42.130;24.732;2023-04-27T05:14:33;99271.44;;;14.05;48.85
5755;BME280;2902;42.130;24.732;2023-04-27T05:17:00;99274.13;;;14.05;49.35
5755;BME280;2902;42.130;24.732;2023-04-27T05:19:28;99281.84;;;13.95;49.29
5755;BME280;2902;42.130;24.732;2023-04-27T05:21:55;99275.75;;;13.88;50.38
5755;BME280;2902;42.130;24.732;2023-04-27T05:24:23;99280.06;;;14.07;50.02
5755;BME280;2902;42.130;24.732;2023-04-27T05:26:50;99274.41;;;14.15;50.39
5755;BME280;2902;42.130;24.732;2023-04-27T05:29:17;99281.09;;;13.88;50.58
5755;BME280;2902;42.130;24.732;2023-04-27T05:31:44;99272.53;;;14.16;53.94
5755;BME280;2902;42.130;24.732;2023-04-27T05:34:10;99286.72;;;14.34;48.22
5755;BME280;2902;42.130;24.732;2023-04-27T05:36:37;99285.16;;;14.45;52.18
5755;BME280;2902;42.130;24.732;2023-04-27T05:39:04;99286.97;;;14.62;50.05
5755;BME280;2902;42.130;24.732;2023-04-27T05:41:32;99296.63;;;14.63;47.34
5755;BME280;2902;42.130;24.732;2023-04-27T05:43:59;99296.72;;;14.57;47.01
5755;BME280;2902;42.130;24.732;2023-04-27T05:46:26;99283.78;;;14.24;52.44
5755;BME280;2902;42.130;24.732;2023-04-27T05:48:52;99300.41;;;14.26;46.63
5755;BME280;2902;42.130;24.732;2023-04-27T05:51:19;99288.78;;;14.14;48.07
5755;BME280;2902;42.130;24.732;2023-04-27T05:53:46;99295.94;;;14.20;47.65
5755;BME280;2902;42.130;24.732;2023-04-27T05:56:12;99307.19;;;14.58;51.00
5755;BME280;2902;42.130;24.732;2023-04-27T05:58:40;99313.09;;;14.31;48.00
5755;BME280;2902;42.130;24.732;2023-04-27T06:01:07;99314.31;;;13.92;47.88
5755;BME280;2902;42.130;24.732;2023-04-27T06:03:34;99317.00;;;13.74;48.08
5755;BME280;2902;42.130;24.732;2023-04-27T06:06:01;99314.78;;;14.25;49.54
5755;BME280;2902;42.130;24.732;2023-04-27T06:08:27;99305.91;;;14.31;51.54
5755;BME280;2902;42.130;24.732;2023-04-27T06:10:55;99329.25;;;14.18;46.29
5755;BME280;2902;42.130;24.732;2023-04-27T06:13:21;99318.94;;;14.21;47.04
5755;BME280;2902;42.130;24.732;2023-04-27T06:15:50;99318.66;;;14.11;46.83
5755;BME280;2902;42.130;24.732;2023-04-27T06:18:16;99309.69;;;14.24;48.38
5755;BME280;2902;42.130;24.732;2023-04-27T06:20:43;99325.63;;;13.94;47.22
5755;BME280;2902;42.130;24.732;2023-04-27T06:23:10;99322.59;;;13.66;47.76
5755;BME280;2902;42.130;24.732;2023-04-27T06:25:36;99316.31;;;13.79;49.30
5755;BME280;2902;42.130;24.732;2023-04-27T06:28:04;99316.16;;;13.92;49.46
5755;BME280;2902;42.130;24.732;2023-04-27T06:30:32;99311.38;;;14.00;48.02
5755;BME280;2902;42.130;24.732;2023-04-27T06:33:00;99317.00;;;14.10;49.55
5755;BME280;2902;42.130;24.732;2023-04-27T06:35:27;99321.53;;;14.28;47.74
5755;BME280;2902;42.130;24.732;2023-04-27T06:37:53;99322.38;;;14.28;47.93
5755;BME280;2902;42.130;24.732;2023-04-27T06:40:23;99325.47;;;14.07;48.51
5755;BME280;2902;42.130;24.732;2023-04-27T06:42:50;99309.56;;;13.76;48.24
5755;BME280;2902;42.130;24.732;2023-04-27T06:45:17;99323.94;;;13.57;49.15
5755;BME280;2902;42.130;24.732;2023-04-27T06:47:44;99307.00;;;13.45;50.16
5755;BME280;2902;42.130;24.732;2023-04-27T06:50:13;99322.00;;;13.64;50.54
5755;BME280;2902;42.130;24.732;2023-04-27T06:52:39;99324.72;;;13.82;50.85
5755;BME280;2902;42.130;24.732;2023-04-27T06:55:07;99325.19;;;14.15;49.15
5755;BME280;2902;42.130;24.732;2023-04-27T06:57:33;99330.06;;;14.00;49.96
5755;BME280;2902;42.130;24.732;2023-04-27T07:00:00;99322.94;;;13.94;49.32
5755;BME280;2902;42.130;24.732;2023-04-27T07:02:28;99323.53;;;14.14;49.57
5755;BME280;2902;42.130;24.732;2023-04-27T07:04:55;99331.09;;;14.17;48.92
5755;BME280;2902;42.130;24.732;2023-04-27T07:07:23;99325.53;;;14.19;48.40
5755;BME280;2902;42.130;24.732;2023-04-27T07:09:49;99329.25;;;14.18;48.97
5755;BME280;2902;42.130;24.732;2023-04-27T07:12:16;99325.94;;;14.22;49.01
5755;BME280;2902;42.130;24.732;2023-04-27T07:14:43;99328.44;;;14.17;48.84
5755;BME280;2902;42.130;24.732;2023-04-27T07:17:10;99328.63;;;14.16;48.99
5755;BME280;2902;42.130;24.732;2023-04-27T07:19:36;99324.97;;;14.35;48.36
5755;BME280;2902;42.130;24.732;2023-04-27T07:22:03;99332.28;;;14.57;48.42
5755;BME280;2902;42.130;24.732;2023-04-27T07:24:31;99331.06;;;14.71;47.46
5755;BME280;2902;42.130;24.732;2023-04-27T07:26:58;99322.09;;;14.95;48.39
5755;BME280;2902;42.130;24.732;2023-04-27T07:29:27;99315.63;;;15.14;47.82
5755;BME280;2902;42.130;24.732;2023-04-27T07:31:54;99324.84;;;15.30;45.64
5755;BME280;2902;42.130;24.732;2023-04-27T07:34:21;99334.56;;;15.42;45.48
5755;BME280;2902;42.130;24.732;2023-04-27T07:36:48;99328.72;;;15.45;45.64
5755;BME280;2902;42.130;24.732;2023-04-27T07:39:14;99334.94;;;15.69;44.42
5755;BME280;2902;42.130;24.732;2023-04-27T07:41:42;99335.75;;;15.93;43.96
5755;BME280;2902;42.130;24.732;2023-04-27T07:44:09;99331.44;;;15.92;42.73
5755;BME280;2902;42.130;24.732;2023-04-27T07:46:36;99326.41;;;16.07;42.99
5755;BME280;2902;42.130;24.732;2023-04-27T07:49:03;99339.09;;;16.11;41.89
5755;BME280;2902;42.130;24.732;2023-04-27T07:51:30;99326.97;;;16.20;41.45
5755;BME280;2902;42.130;24.732;2023-04-27T07:53:58;99333.38;;;16.42;42.06
5755;BME280;2902;42.130;24.732;2023-04-27T07:56:26;99335.78;;;16.44;40.74
5755;BME280;2902;42.130;24.732;2023-04-27T07:58:54;99327.94;;;16.65;39.77
5755;BME280;2902;42.130;24.732;2023-04-27T08:01:21;99329.72;;;16.48;40.87
5755;BME280;2902;42.130;24.732;2023-04-27T08:03:47;99336.13;;;16.36;40.69
5755;BME280;2902;42.130;24.732;2023-04-27T08:06:14;99332.75;;;16.80;40.82
5755;BME280;2902;42.130;24.732;2023-04-27T08:08:41;99332.28;;;17.27;40.05
5755;BME280;2902;42.130;24.732;2023-04-27T08:11:08;99337.56;;;17.06;38.97
5755;BME280;2902;42.130;24.732;2023-04-27T08:13:35;99322.69;;;17.15;39.36
5755;BME280;2902;42.130;24.732;2023-04-27T08:16:03;99318.81;;;17.39;38.97
5755;BME280;2902;42.130;24.732;2023-04-27T08:18:33;99317.38;;;17.48;38.39
5755;BME280;2902;42.130;24.732;2023-04-27T08:21:00;99315.44;;;17.81;38.68
5755;BME280;2902;42.130;24.732;2023-04-27T08:23:27;99305.94;;;18.33;38.13
5755;BME280;2902;42.130;24.732;2023-04-27T08:25:53;99299.00;;;19.07;44.09
5755;BME280;2902;42.130;24.732;2023-04-27T08:28:20;99290.63;;;19.35;41.02
5755;BME280;2902;42.130;24.732;2023-04-27T08:30:47;99293.84;;;19.63;37.36
5755;BME280;2902;42.130;24.732;2023-04-27T08:33:15;99296.41;;;19.85;35.11
5755;BME280;2902;42.130;24.732;2023-04-27T08:35:42;99298.41;;;19.63;34.58
5755;BME280;2902;42.130;24.732;2023-04-27T08:38:09;99283.47;;;19.87;37.10
5755;BME280;2902;42.130;24.732;2023-04-27T08:40:41;99279.59;;;20.14;38.35
5755;BME280;2902;42.130;24.732;2023-04-27T08:43:08;99277.09;;;20.70;36.59
5755;BME280;2902;42.130;24.732;2023-04-27T08:45:35;99276.63;;;20.11;33.92
5755;BME280;2902;42.130;24.732;2023-04-27T08:48:02;99273.50;;;20.44;35.74
5755;BME280;2902;42.130;24.732;2023-04-27T08:50:30;99278.06;;;20.33;33.49
5755;BME280;2902;42.130;24.732;2023-04-27T08:52:56;99274.00;;;20.31;34.17
5755;BME280;2902;42.130;24.732;2023-04-27T08:55:23;99273.06;;;20.72;32.43
5755;BME280;2902;42.130;24.732;2023-04-27T08:57:54;99267.09;;;20.55;32.48
5755;BME280;2902;42.130;24.732;2023-04-27T09:00:21;99262.53;;;20.71;34.86
5755;BME280;2902;42.130;24.732;2023-04-27T09:02:49;99270.16;;;20.94;34.89
5755;BME280;2902;42.130;24.732;2023-04-27T09:05:16;99263.97;;;21.18;31.90
5755;BME280;2902;42.130;24.732;2023-04-27T09:07:57;99262.88;;;21.39;31.86
5755;BME280;2902;42.130;24.732;2023-04-27T09:10:25;99262.59;;;21.61;32.78
5755;BME280;2902;42.130;24.732;2023-04-27T09:12:57;99258.41;;;22.13;34.34
5755;BME280;2902;42.130;24.732;2023-04-27T09:15:25;99265.31;;;22.44;31.63
5755;BME280;2902;42.130;24.732;2023-04-27T09:17:55;99272.50;;;22.05;29.08
5755;BME280;2902;42.130;24.732;2023-04-27T09:20:23;99259.06;;;21.65;32.73
5755;BME280;2902;42.130;24.732;2023-04-27T09:22:52;99264.94;;;22.07;31.36
5755;BME280;2902;42.130;24.732;2023-04-27T09:25:24;99263.84;;;22.08;29.67
5755;BME280;2902;42.130;24.732;2023-04-27T09:27:51;99256.09;;;21.77;29.74
5755;BME280;2902;42.130;24.732;2023-04-27T09:30:18;99250.16;;;21.50;30.32
5755;BME280;2902;42.130;24.732;2023-04-27T09:32:50;99256.88;;;21.87;31.40
5755;BME280;2902;42.130;24.732;2023-04-27T09:35:21;99246.63;;;21.79;30.33
5755;BME280;2902;42.130;24.732;2023-04-27T09:37:48;99245.25;;;21.92;30.22
5755;BME280;2902;42.130;24.732;2023-04-27T09:40:17;99250.44;;;21.73;29.44
5755;BME280;2902;42.130;24.732;2023-04-27T09:42:45;99242.31;;;21.48;29.95
5755;BME280;2902;42.130;24.732;2023-04-27T09:45:12;99240.72;;;21.27;30.50
5755;BME280;2902;42.130;24.732;2023-04-27T09:47:39;99239.09;;;21.26;31.00
5755;BME280;2902;42.130;24.732;2023-04-27T09:50:07;99241.78;;;21.51;30.91
5755;BME280;2902;42.130;24.732;2023-04-27T09:52:34;99235.22;;;21.92;31.38
5755;BME280;2902;42.130;24.732;2023-04-27T09:55:02;99240.56;;;22.12;32.60
5755;BME280;2902;42.130;24.732;2023-04-27T09:57:35;99244.97;;;22.57;31.34
5755;BME280;2902;42.130;24.732;2023-04-27T10:00:13;99243.06;;;22.62;29.91
5755;BME280;2902;42.130;24.732;2023-04-27T10:02:55;99244.59;;;22.15;29.77
5755;BME280;2902;42.130;24.732;2023-04-27T10:05:36;99243.13;;;21.49;29.51
5755;BME280;2902;42.130;24.732;2023-04-27T10:08:05;99238.22;;;20.71;30.17
5755;BME280;2902;42.130;24.732;2023-04-27T10:10:41;99234.19;;;20.63;31.22
5755;BME280;2902;42.130;24.732;2023-04-27T10:13:19;99231.69;;;20.46;30.43
5755;BME280;2902;42.130;24.732;2023-04-27T10:15:48;99230.34;;;20.49;30.95
5755;BME280;2902;42.130;24.732;2023-04-27T10:18:25;99245.28;;;20.05;32.57
5755;BME280;2902;42.130;24.732;2023-04-27T10:20:52;99237.53;;;19.72;33.15
5755;BME280;2902;42.130;24.732;2023-04-27T10:23:22;99242.44;;;19.80;32.49
5755;BME280;2902;42.130;24.732;2023-04-27T10:25:49;99231.13;;;19.83;35.80
5755;BME280;2902;42.130;24.732;2023-04-27T10:28:16;99230.13;;;19.94;32.58
5755;BME280;2902;42.130;24.732;2023-04-27T10:30:45;99225.66;;;19.68;34.23
5755;BME280;2902;42.130;24.732;2023-04-27T10:33:17;99219.47;;;18.94;36.44
5755;BME280;2902;42.130;24.732;2023-04-27T10:35:53;99233.88;;;18.83;37.71
5755;BME280;2902;42.130;24.732;2023-04-27T10:38:20;99225.41;;;19.28;39.55
5755;BME280;2902;42.130;24.732;2023-04-27T10:40:54;99246.69;;;19.66;37.93
5755;BME280;2902;42.130;24.732;2023-04-27T10:43:23;99240.91;;;19.89;36.65
5755;BME280;2902;42.130;24.732;2023-04-27T10:45:51;99242.09;;;20.13;35.54
5755;BME280;2902;42.130;24.732;2023-04-27T10:48:19;99244.09;;;20.42;33.87
5755;BME280;2902;42.130;24.732;2023-04-27T10:50:46;99239.25;;;20.49;35.76
5755;BME280;2902;42.130;24.732;2023-04-27T10:53:16;99252.00;;;20.74;32.89
5755;BME280;2902;42.130;24.732;2023-04-27T10:55:43;99250.44;;;20.93;33.29
5755;BME280;2902;42.130;24.732;2023-04-27T10:58:09;99227.75;;;20.99;33.00
5755;BME280;2902;42.130;24.732;2023-04-27T11:00:38;99252.63;;;21.26;32.67
5755;BME280;2902;42.130;24.732;2023-04-27T11:03:11;99251.00;;;21.10;31.08
5755;BME280;2902;42.130;24.732;2023-04-27T11:05:41;99245.31;;;21.07;34.81
5755;BME280;2902;42.130;24.732;2023-04-27T11:08:10;99247.19;;;21.11;35.05
5755;BME280;2902;42.130;24.732;2023-04-27T11:10:41;99248.84;;;21.22;34.65
5755;BME280;2902;42.130;24.732;2023-04-27T11:13:10;99265.28;;;20.96;31.37
5755;BME280;2902;42.130;24.732;2023-04-27T11:15:47;99255.84;;;21.03;32.94
5755;BME280;2902;42.130;24.732;2023-04-27T11:18:15;99249.91;;;21.11;33.77
5755;BME280;2902;42.130;24.732;2023-04-27T11:20:46;99254.22;;;21.22;32.84
5755;BME280;2902;42.130;24.732;2023-04-27T11:23:21;99242.09;;;21.35;34.19
5755;BME280;2902;42.130;24.732;2023-04-27T11:25:49;99261.78;;;21.35;33.68
5755;BME280;2902;42.130;24.732;2023-04-27T11:28:16;99249.59;;;21.63;33.68
5755;BME280;2902;42.130;24.732;2023-04-27T11:30:43;99258.25;;;21.75;32.84
5755;BME280;2902;42.130;24.732;2023-04-27T11:33:10;99266.38;;;21.80;31.10
5755;BME280;2902;42.130;24.732;2023-04-27T11:35:37;99271.53;;;21.71;29.49
5755;BME280;2902;42.130;24.732;2023-04-27T11:38:05;99269.63;;;21.02;29.95
5755;BME280;2902;42.130;24.732;2023-04-27T11:40:32;99263.31;;;20.61;29.82
5755;BME280;2902;42.130;24.732;2023-04-27T11:43:00;99257.78;;;20.21;31.69
5755;BME280;2902;42.130;24.732;2023-04-27T11:45:29;99257.34;;;20.49;33.21
5755;BME280;2902;42.130;24.732;2023-04-27T11:47:57;99257.91;;;20.61;31.87
5755;BME280;2902;42.130;24.732;2023-04-27T11:50:24;99256.34;;;20.75;32.67
5755;BME280;2902;42.130;24.732;2023-04-27T11:52:51;99264.22;;;20.92;30.82
5755;BME280;2902;42.130;24.732;2023-04-27T11:55:21;99257.72;;;21.18;29.91
5755;BME280;2902;42.130;24.732;2023-04-27T11:57:55;99253.13;;;20.93;30.48
5755;BME280;2902;42.130;24.732;2023-04-27T12:00:22;99257.06;;;20.55;29.87
5755;BME280;2902;42.130;24.732;2023-04-27T12:02:49;99252.94;;;20.28;30.18
5755;BME280;2902;42.130;24.732;2023-04-27T12:05:16;99251.94;;;20.54;30.75
5755;BME280;2902;42.130;24.732;2023-04-27T12:07:44;99261.22;;;20.83;30.23
5755;BME280;2902;42.130;24.732;2023-04-27T12:10:11;99252.31;;;21.18;30.98
5755;BME280;2902;42.130;24.732;2023-04-27T12:12:39;99251.81;;;21.51;30.05
5755;BME280;2902;42.130;24.732;2023-04-27T12:15:07;99257.69;;;21.88;31.64
5755;BME280;2902;42.130;24.732;2023-04-27T12:17:33;99262.81;;;21.99;27.51
5755;BME280;2902;42.130;24.732;2023-04-27T12:20:00;99253.88;;;21.94;27.17
5755;BME280;2902;42.130;24.732;2023-04-27T12:22:27;99251.13;;;22.14;29.92
5755;BME280;2902;42.130;24.732;2023-04-27T12:24:54;99248.06;;;22.35;28.70
5755;BME280;2902;42.130;24.732;2023-04-27T12:27:21;99258.13;;;22.25;27.82
5755;BME280;2902;42.130;24.732;2023-04-27T12:29:49;99215.31;;;22.32;29.88
5755;BME280;2902;42.130;24.732;2023-04-27T12:32:18;99249.19;;;22.78;29.09
5755;BME280;2902;42.130;24.732;2023-04-27T12:34:45;99256.47;;;22.82;27.13
5755;BME280;2902;42.130;24.732;2023-04-27T12:37:12;99250.81;;;22.20;26.42
5755;BME280;2902;42.130;24.732;2023-04-27T12:39:38;99251.34;;;22.22;28.42
5755;BME280;2902;42.130;24.732;2023-04-27T12:42:05;99237.78;;;22.32;28.52
5755;BME280;2902;42.130;24.732;2023-04-27T12:44:32;99234.44;;;22.50;28.66
5755;BME280;2902;42.130;24.732;2023-04-27T12:47:00;99241.19;;;22.58;26.38
5755;BME280;2902;42.130;24.732;2023-04-27T12:49:28;99238.84;;;22.36;25.90
5755;BME280;2902;42.130;24.732;2023-04-27T12:51:54;99237.91;;;21.97;28.26
5755;BME280;2902;42.130;24.732;2023-04-27T12:54:22;99246.53;;;22.09;28.30
5755;BME280;2902;42.130;24.732;2023-04-27T12:56:49;99245.53;;;21.80;29.07
5755;BME280;2902;42.130;24.732;2023-04-27T12:59:16;99246.91;;;21.58;27.69
5755;BME280;2902;42.130;24.732;2023-04-27T13:01:42;99248.84;;;21.32;29.62
5755;BME280;2902;42.130;24.732;2023-04-27T13:04:16;99247.47;;;21.30;28.23
5755;BME280;2902;42.130;24.732;2023-04-27T13:06:43;99242.06;;;21.05;28.55
5755;BME280;2902;42.130;24.732;2023-04-27T13:09:11;99250.16;;;21.00;29.87
5755;BME280;2902;42.130;24.732;2023-04-27T13:11:37;99242.34;;;21.03;29.40